Nautilus Survey — LIXR — position and weather

sailwx.info

Track history (hours):
 
Tides and Currents Weather Stations Pressure Air Temp Water Temp Dewpoint Dewpoint Depression Visibility Wind Speed Wind Dir Waves Ship Positions

Nautilus Survey

Last reported at 2016-May-05 19:25 UTC. Time now 2016-May-06 03:33 UTC.
Position N 66°44' E 013°13'.

Length 22 m; draft 2 m.

Type: Dredging. MMSI: 259464000.

Date/timePositionNaut miles runAvg speedWind from/ knotsBaromVisibWave heightAir tempDewpointWater temp
2016-May-05 19:25N 66°44' E 013°13'13 7.3
2016-May-05 17:33N 66°36' E 012°46'8 7.8
2016-May-05 16:32N 66°28' E 012°45'7 7.5
2016-May-05 15:33N 66°21' E 012°51'  
2016-May-03 10:24N 66°17' E 012°39'5 6.2
2016-May-03 09:33N 66°21' E 012°47'0 0.0
2016-May-03 08:31N 66°21' E 012°47'3 2.4
2016-May-03 07:23N 66°23' E 012°49'0 0.0
2016-May-03 06:25N 66°23' E 012°49'0 0.5
2016-May-03 05:32N 66°24' E 012°50'0 0.0
2016-May-03 04:33N 66°24' E 012°50'0 0.0
2016-May-03 03:33N 66°24' E 012°50'0 0.0
2016-May-03 02:33N 66°24' E 012°50'0 0.0
2016-May-03 01:33N 66°24' E 012°50'0 0.0
2016-May-03 00:33N 66°24' E 012°50'0 0.0
2016-May-02 23:33N 66°24' E 012°50'0 0.0
2016-May-02 22:33N 66°24' E 012°50'0 0.0
2016-May-02 21:33N 66°24' E 012°50'0 0.0
2016-May-02 20:33N 66°24' E 012°50'0 0.0
2016-May-02 19:33N 66°24' E 012°50'0 0.0
2016-May-02 18:33N 66°24' E 012°50'0 0.4
2016-May-02 17:33N 66°24' E 012°49'0 0.0
2016-May-02 10:33N 66°24' E 012°49'0 0.1
2016-May-02 09:33N 66°24' E 012°48'0 0.0
2016-May-02 08:33N 66°24' E 012°48'0 0.0
2016-May-02 07:33N 66°24' E 012°48'0 0.0
2016-May-02 06:33N 66°24' E 012°48'0 0.0
2016-May-02 05:33N 66°24' E 012°48'0 0.0
2016-May-02 04:33N 66°24' E 012°48'0 0.0
2016-May-02 03:33N 66°24' E 012°48'0 0.0
2016-May-02 02:33N 66°24' E 012°48'0 0.0
2016-May-02 01:33N 66°24' E 012°48'0 0.0
2016-May-02 00:33N 66°24' E 012°48'0 0.0
2016-May-01 23:33N 66°24' E 012°48'0 0.0
2016-May-01 22:33N 66°24' E 012°48'0 0.0
2016-May-01 21:33N 66°24' E 012°48'0 0.2
2016-May-01 20:33N 66°24' E 012°49'0 0.2
2016-May-01 19:33N 66°24' E 012°49'0 0.0
2016-May-01 18:33N 66°24' E 012°49'0 0.0
2016-May-01 17:33N 66°24' E 012°49'0 0.0
2016-May-01 16:33N 66°24' E 012°49'0 0.0
2016-May-01 15:33N 66°24' E 012°49'0 0.0
2016-May-01 14:33N 66°24' E 012°49'0 0.1
2016-May-01 13:33N 66°24' E 012°49'0 0.3
2016-May-01 12:31N 66°24' E 012°49'0 0.0
2016-May-01 11:22N 66°24' E 012°49'0 0.0
2016-May-01 10:30N 66°24' E 012°49'0 0.0
2016-May-01 09:32N 66°24' E 012°49'0 0.0
2016-May-01 08:32N 66°24' E 012°49'0 0.0
2016-May-01 07:31N 66°24' E 012°49'0 0.1
2016-May-01 06:33N 66°24' E 012°49'0 0.4
2016-May-01 05:33N 66°24' E 012°50'0 0.0
2016-May-01 04:33N 66°24' E 012°50'0 0.0
2016-May-01 03:33N 66°24' E 012°50'0 0.0
2016-May-01 02:33N 66°24' E 012°50'0 0.0
2016-May-01 01:33N 66°24' E 012°50'0 0.0
2016-May-01 00:33N 66°24' E 012°50'0 0.0
2016-Apr-30 23:33N 66°24' E 012°50'0 0.0
2016-Apr-30 22:33N 66°24' E 012°50'0 0.0
2016-Apr-30 21:33N 66°24' E 012°50'0 0.0
2016-Apr-30 20:33N 66°24' E 012°50'0 0.0
2016-Apr-30 19:33N 66°24' E 012°50'0 0.0
2016-Apr-30 18:33N 66°24' E 012°50'5 3.5
2016-Apr-30 17:16N 66°21' E 012°59'5 6.5
2016-Apr-30 16:33N 66°24' E 012°50'0 0.3
2016-Apr-30 15:20N 66°24' E 012°49'0 0.0
2016-Apr-30 14:32N 66°24' E 012°49'0 0.3
2016-Apr-30 13:33N 66°24' E 012°49'1 0.7
2016-Apr-30 12:33N 66°23' E 012°48'9 8.7
2016-Apr-30 11:32N 66°16' E 012°36'6 0.3
2016-Apr-29 17:15N 66°12' E 012°26'6 8.7
2016-Apr-29 16:33N 66°18' E 012°26'5 5.5
2016-Apr-29 15:33N 66°22' E 012°35'1 0.7
2016-Apr-29 14:33N 66°23' E 012°36'1 0.8
2016-Apr-29 13:33N 66°23' E 012°34'1 1.4
2016-Apr-29 12:33N 66°22' E 012°32'0 0.1
2016-Apr-29 11:33N 66°22' E 012°32'0 0.0
2016-Apr-29 10:33N 66°22' E 012°32'0 0.1
2016-Apr-29 09:33N 66°21' E 012°32'0 0.0
2016-Apr-29 08:33N 66°21' E 012°32'0 0.1
2016-Apr-29 07:33N 66°22' E 012°32'0 0.0
2016-Apr-29 06:33N 66°22' E 012°32'1 1.4
2016-Apr-29 05:33N 66°23' E 012°34'0 0.0
2016-Apr-29 04:33N 66°23' E 012°34'0 0.0
2016-Apr-29 03:33N 66°23' E 012°34'0 0.0
2016-Apr-29 02:33N 66°23' E 012°34'0 0.0
2016-Apr-29 01:33N 66°23' E 012°34'0 0.0
2016-Apr-29 00:33N 66°23' E 012°34'0 0.0
2016-Apr-28 23:33N 66°23' E 012°34'0 0.0
2016-Apr-28 22:33N 66°23' E 012°34'0 0.0
2016-Apr-28 21:33N 66°23' E 012°34'0 0.0
2016-Apr-28 20:33N 66°23' E 012°34'0 0.0
2016-Apr-28 19:33N 66°23' E 012°34'0 0.0
2016-Apr-28 18:33N 66°23' E 012°34'1 1.4
2016-Apr-28 17:33N 66°21' E 012°32'0 0.0
2016-Apr-28 16:33N 66°22' E 012°32'2 1.8
2016-Apr-28 15:33N 66°20' E 012°28'  
Track history (hours):
 
Tides and Currents Weather Stations Pressure Air Temp Water Temp Dewpoint Dewpoint Depression Visibility Wind Speed Wind Dir Waves Ship Positions

Nautilus Survey

Last reported at 2016-May-05 19:25 UTC. Time now 2016-May-06 03:33 UTC.
Position N 66°44' E 013°13'.

Length 22 m; draft 2 m.

Type: Dredging. MMSI: 259464000.

Date/timePositionNaut miles runAvg speedWind from/ knotsBaromVisibWave heightAir tempDewpointWater temp
2016-May-05 19:25N 66°44' E 013°13'13 7.3
2016-May-05 17:33N 66°36' E 012°46'8 7.8
2016-May-05 16:32N 66°28' E 012°45'7 7.5
2016-May-05 15:33N 66°21' E 012°51'  
2016-May-03 10:24N 66°17' E 012°39'5 6.2
2016-May-03 09:33N 66°21' E 012°47'0 0.0
2016-May-03 08:31N 66°21' E 012°47'3 2.4
2016-May-03 07:23N 66°23' E 012°49'0 0.0
2016-May-03 06:25N 66°23' E 012°49'0 0.5
2016-May-03 05:32N 66°24' E 012°50'0 0.0
2016-May-03 04:33N 66°24' E 012°50'0 0.0
2016-May-03 03:33N 66°24' E 012°50'0 0.0
2016-May-03 02:33N 66°24' E 012°50'0 0.0
2016-May-03 01:33N 66°24' E 012°50'0 0.0
2016-May-03 00:33N 66°24' E 012°50'0 0.0
2016-May-02 23:33N 66°24' E 012°50'0 0.0
2016-May-02 22:33N 66°24' E 012°50'0 0.0
2016-May-02 21:33N 66°24' E 012°50'0 0.0
2016-May-02 20:33N 66°24' E 012°50'0 0.0
2016-May-02 19:33N 66°24' E 012°50'0 0.0
2016-May-02 18:33N 66°24' E 012°50'0 0.4
2016-May-02 17:33N 66°24' E 012°49'0 0.0
2016-May-02 10:33N 66°24' E 012°49'0 0.1
2016-May-02 09:33N 66°24' E 012°48'0 0.0
2016-May-02 08:33N 66°24' E 012°48'0 0.0
2016-May-02 07:33N 66°24' E 012°48'0 0.0
2016-May-02 06:33N 66°24' E 012°48'0 0.0
2016-May-02 05:33N 66°24' E 012°48'0 0.0
2016-May-02 04:33N 66°24' E 012°48'0 0.0
2016-May-02 03:33N 66°24' E 012°48'0 0.0
2016-May-02 02:33N 66°24' E 012°48'0 0.0
2016-May-02 01:33N 66°24' E 012°48'0 0.0
2016-May-02 00:33N 66°24' E 012°48'0 0.0
2016-May-01 23:33N 66°24' E 012°48'0 0.0
2016-May-01 22:33N 66°24' E 012°48'0 0.0
2016-May-01 21:33N 66°24' E 012°48'0 0.2
2016-May-01 20:33N 66°24' E 012°49'0 0.2
2016-May-01 19:33N 66°24' E 012°49'0 0.0
2016-May-01 18:33N 66°24' E 012°49'0 0.0
2016-May-01 17:33N 66°24' E 012°49'0 0.0
2016-May-01 16:33N 66°24' E 012°49'0 0.0
2016-May-01 15:33N 66°24' E 012°49'0 0.0
2016-May-01 14:33N 66°24' E 012°49'0 0.1
2016-May-01 13:33N 66°24' E 012°49'0 0.3
2016-May-01 12:31N 66°24' E 012°49'0 0.0
2016-May-01 11:22N 66°24' E 012°49'0 0.0
2016-May-01 10:30N 66°24' E 012°49'0 0.0
2016-May-01 09:32N 66°24' E 012°49'0 0.0
2016-May-01 08:32N 66°24' E 012°49'0 0.0
2016-May-01 07:31N 66°24' E 012°49'0 0.1
2016-May-01 06:33N 66°24' E 012°49'0 0.4
2016-May-01 05:33N 66°24' E 012°50'0 0.0
2016-May-01 04:33N 66°24' E 012°50'0 0.0
2016-May-01 03:33N 66°24' E 012°50'0 0.0
2016-May-01 02:33N 66°24' E 012°50'0 0.0
2016-May-01 01:33N 66°24' E 012°50'0 0.0
2016-May-01 00:33N 66°24' E 012°50'0 0.0
2016-Apr-30 23:33N 66°24' E 012°50'0 0.0
2016-Apr-30 22:33N 66°24' E 012°50'0 0.0
2016-Apr-30 21:33N 66°24' E 012°50'0 0.0
2016-Apr-30 20:33N 66°24' E 012°50'0 0.0
2016-Apr-30 19:33N 66°24' E 012°50'0 0.0
2016-Apr-30 18:33N 66°24' E 012°50'5 3.5
2016-Apr-30 17:16N 66°21' E 012°59'5 6.5
2016-Apr-30 16:33N 66°24' E 012°50'0 0.3
2016-Apr-30 15:20N 66°24' E 012°49'0 0.0
2016-Apr-30 14:32N 66°24' E 012°49'0 0.3
2016-Apr-30 13:33N 66°24' E 012°49'1 0.7
2016-Apr-30 12:33N 66°23' E 012°48'9 8.7
2016-Apr-30 11:32N 66°16' E 012°36'6 0.3
2016-Apr-29 17:15N 66°12' E 012°26'6 8.7
2016-Apr-29 16:33N 66°18' E 012°26'5 5.5
2016-Apr-29 15:33N 66°22' E 012°35'1 0.7
2016-Apr-29 14:33N 66°23' E 012°36'1 0.8
2016-Apr-29 13:33N 66°23' E 012°34'1 1.4
2016-Apr-29 12:33N 66°22' E 012°32'0 0.1
2016-Apr-29 11:33N 66°22' E 012°32'0 0.0
2016-Apr-29 10:33N 66°22' E 012°32'0 0.1
2016-Apr-29 09:33N 66°21' E 012°32'0 0.0
2016-Apr-29 08:33N 66°21' E 012°32'0 0.1
2016-Apr-29 07:33N 66°22' E 012°32'0 0.0
2016-Apr-29 06:33N 66°22' E 012°32'1 1.4
2016-Apr-29 05:33N 66°23' E 012°34'0 0.0
2016-Apr-29 04:33N 66°23' E 012°34'0 0.0
2016-Apr-29 03:33N 66°23' E 012°34'0 0.0
2016-Apr-29 02:33N 66°23' E 012°34'0 0.0
2016-Apr-29 01:33N 66°23' E 012°34'0 0.0
2016-Apr-29 00:33N 66°23' E 012°34'0 0.0
2016-Apr-28 23:33N 66°23' E 012°34'0 0.0
2016-Apr-28 22:33N 66°23' E 012°34'0 0.0
2016-Apr-28 21:33N 66°23' E 012°34'0 0.0
2016-Apr-28 20:33N 66°23' E 012°34'0 0.0
2016-Apr-28 19:33N 66°23' E 012°34'0 0.0
2016-Apr-28 18:33N 66°23' E 012°34'1 1.4
2016-Apr-28 17:33N 66°21' E 012°32'0 0.0
2016-Apr-28 16:33N 66°22' E 012°32'2 1.8
2016-Apr-28 15:33N 66°20' E 012°28'  

Dump ship's entire track history